createdAt,value
2019-01-17T00:03:14.053Z,3.50
2019-01-17T00:06:41.442Z,3.50
2019-01-17T00:10:06.550Z,3.50
2019-01-17T00:13:47.181Z,3.50
2019-01-17T00:17:09.818Z,3.50
2019-01-17T00:20:22.022Z,3.50
2019-01-17T00:23:37.716Z,3.50
2019-01-17T00:27:00.250Z,3.40
2019-01-17T00:30:29.471Z,3.50
2019-01-17T00:33:58.042Z,3.40
2019-01-17T00:37:20.566Z,3.40
2019-01-17T00:40:55.030Z,3.30
2019-01-17T00:44:12.158Z,3.40
2019-01-17T00:47:40.438Z,3.40
2019-01-17T00:51:05.138Z,3.40
2019-01-17T00:54:39.574Z,3.30
2019-01-17T00:58:14.270Z,3.30
2019-01-17T01:01:35.402Z,3.40
2019-01-17T01:05:14.454Z,3.50
2019-01-17T01:08:39.554Z,3.50
2019-01-17T01:12:10.206Z,3.60
2019-01-17T01:15:48.850Z,3.60
2019-01-17T01:19:03.695Z,3.60
2019-01-17T01:22:32.082Z,3.70
2019-01-17T01:25:54.619Z,3.70
2019-01-17T01:29:19.989Z,3.80
2019-01-17T01:32:52.775Z,3.80
2019-01-17T01:36:18.131Z,3.80
2019-01-17T01:39:31.789Z,3.80
2019-01-17T01:43:12.734Z,3.90
2019-01-17T01:46:33.952Z,3.90
2019-01-17T01:49:55.286Z,3.90
2019-01-17T01:53:07.725Z,4.00
2019-01-17T01:56:10.915Z,4.00
2019-01-17T01:59:14.111Z,4.00
2019-01-17T02:02:17.302Z,4.00
2019-01-17T02:05:22.198Z,4.10
2019-01-17T02:08:25.230Z,4.00
2019-01-17T02:11:28.531Z,4.00
2019-01-17T02:14:31.667Z,4.10
2019-01-17T02:17:34.820Z,4.10
2019-01-17T02:20:38.016Z,4.10
2019-01-17T02:23:42.906Z,4.10
2019-01-17T02:26:46.042Z,4.10
2019-01-17T02:29:49.184Z,4.10
2019-01-17T02:32:52.330Z,4.10
2019-01-17T02:35:55.544Z,4.10
2019-01-17T02:38:58.721Z,4.10
2019-01-17T02:42:01.887Z,4.10
2019-01-17T02:45:05.823Z,4.10
2019-01-17T02:48:08.814Z,4.10
2019-01-17T02:51:12.015Z,4.20
2019-01-17T02:54:15.252Z,4.20
2019-01-17T02:57:18.301Z,4.20
2019-01-17T03:00:21.549Z,4.20
2019-01-17T03:03:24.790Z,4.20
2019-01-17T03:06:28.275Z,4.20
2019-01-17T03:09:31.490Z,4.20
2019-01-17T03:12:34.723Z,4.30
2019-01-17T03:15:37.882Z,4.30
2019-01-17T03:18:41.111Z,4.30
2019-01-17T03:21:44.170Z,4.30
2019-01-17T03:24:48.839Z,4.30
2019-01-17T03:27:51.990Z,4.30
2019-01-17T03:30:55.235Z,4.30
2019-01-17T03:33:58.386Z,4.40
2019-01-17T03:37:01.518Z,4.40
2019-01-17T03:40:05.491Z,4.40
2019-01-17T03:43:08.722Z,4.40
2019-01-17T03:46:11.774Z,4.40
2019-01-17T03:49:15.082Z,4.40
2019-01-17T03:52:18.274Z,4.40
2019-01-17T03:55:22.282Z,4.30
2019-01-17T03:58:26.499Z,4.20
2019-01-17T04:01:29.636Z,4.10
2019-01-17T04:04:32.690Z,4.10
2019-01-17T04:07:36.150Z,4.00
2019-01-17T04:10:39.283Z,4.00
2019-01-17T04:13:42.414Z,3.90
2019-01-17T04:16:45.470Z,4.00
2019-01-17T04:19:48.631Z,4.00
2019-01-17T04:22:51.858Z,4.00
2019-01-17T04:25:56.118Z,4.00
2019-01-17T04:28:59.274Z,4.00
2019-01-17T04:32:02.408Z,4.00
2019-01-17T04:35:05.567Z,3.80
2019-01-17T04:38:08.647Z,3.90
2019-01-17T04:41:11.847Z,3.90
2019-01-17T04:44:15.090Z,3.90
2019-01-17T04:47:18.241Z,3.90
2019-01-17T04:50:21.482Z,3.80
2019-01-17T04:53:24.629Z,3.90
2019-01-17T04:56:27.722Z,3.90
2019-01-17T04:59:30.815Z,3.90
2019-01-17T05:02:33.910Z,3.90
2019-01-17T05:05:36.997Z,4.00
2019-01-17T05:08:40.202Z,4.00
2019-01-17T05:11:43.366Z,4.00
2019-01-17T05:14:46.484Z,4.00
2019-01-17T05:17:49.674Z,4.10
2019-01-17T05:20:52.778Z,4.10
2019-01-17T05:23:55.962Z,4.20
2019-01-17T05:26:59.058Z,4.20
2019-01-17T05:30:02.254Z,4.20
2019-01-17T05:33:06.478Z,4.30
2019-01-17T05:36:09.564Z,4.40
2019-01-17T05:39:12.764Z,4.40
2019-01-17T05:42:15.850Z,4.50
2019-01-17T05:45:18.952Z,4.50
2019-01-17T05:48:22.138Z,4.50
2019-01-17T05:51:25.333Z,4.60
2019-01-17T05:54:28.426Z,4.60
2019-01-17T05:57:31.526Z,4.70
2019-01-17T06:00:34.609Z,4.60
2019-01-17T06:03:37.710Z,4.60
2019-01-17T06:06:40.799Z,4.60
2019-01-17T06:09:43.934Z,4.60
2019-01-17T06:12:47.086Z,4.60
2019-01-17T06:15:50.902Z,4.60
2019-01-17T06:18:54.190Z,4.70
2019-01-17T06:21:57.438Z,4.70
2019-01-17T06:25:00.487Z,4.60
2019-01-17T06:28:04.848Z,4.60
2019-01-17T06:31:07.994Z,4.60
2019-01-17T06:34:11.134Z,4.60
2019-01-17T06:37:14.182Z,4.60
2019-01-17T06:40:23.314Z,4.50
2019-01-17T06:43:26.512Z,4.60
2019-01-17T06:46:30.678Z,4.60
2019-01-17T06:49:33.922Z,4.60
2019-01-17T06:52:37.162Z,4.60
2019-01-17T06:55:40.314Z,4.60
2019-01-17T06:58:43.662Z,4.70
2019-01-17T07:01:46.811Z,4.70
2019-01-17T07:04:50.154Z,4.60
2019-01-17T07:07:53.197Z,4.70
2019-01-17T07:10:56.750Z,4.70
2019-01-17T07:13:59.895Z,4.70
2019-01-17T07:17:03.454Z,4.70
2019-01-17T07:20:09.222Z,4.80
2019-01-17T07:23:12.422Z,4.80
2019-01-17T07:26:15.546Z,4.80
2019-01-17T07:29:18.890Z,4.70
2019-01-17T07:32:22.034Z,4.70
2019-01-17T07:35:26.195Z,4.80
2019-01-17T07:38:29.350Z,4.80
2019-01-17T07:41:33.502Z,4.80
2019-01-17T07:44:36.659Z,4.90
2019-01-17T07:47:39.895Z,4.90
2019-01-17T07:50:43.466Z,4.90
2019-01-17T07:53:46.590Z,4.90
2019-01-17T07:56:49.646Z,5.00
2019-01-17T07:59:52.814Z,5.10
2019-01-17T08:02:55.829Z,5.00
2019-01-17T08:05:59.994Z,5.00
2019-01-17T08:09:06.491Z,5.10
2019-01-17T08:12:09.654Z,5.00
2019-01-17T08:15:13.117Z,5.10
2019-01-17T08:18:18.773Z,5.10
2019-01-17T08:21:21.146Z,5.10
2019-01-17T08:24:24.406Z,5.10
2019-01-17T08:27:27.540Z,5.10
2019-01-17T08:30:30.784Z,5.10
2019-01-17T08:33:33.926Z,5.10
2019-01-17T08:36:37.982Z,5.20
2019-01-17T08:39:41.034Z,5.20
2019-01-17T08:42:44.270Z,5.20
2019-01-17T08:45:47.422Z,5.20
2019-01-17T08:48:50.919Z,5.20
2019-01-17T08:51:54.021Z,5.20
2019-01-17T08:54:57.218Z,5.20
2019-01-17T08:58:00.411Z,5.20
2019-01-17T09:01:03.607Z,5.20
2019-01-17T09:04:06.802Z,5.20
2019-01-17T09:07:10.009Z,5.30
2019-01-17T09:10:21.590Z,5.30
2019-01-17T09:13:24.783Z,5.30
2019-01-17T09:16:27.873Z,5.30
2019-01-17T09:19:30.970Z,5.40
2019-01-17T09:22:34.109Z,5.40
2019-01-17T09:25:37.156Z,5.40
2019-01-17T09:28:40.246Z,5.40
2019-01-17T09:31:43.030Z,5.40
2019-01-17T09:34:46.154Z,5.40
2019-01-17T09:37:49.246Z,5.40
2019-01-17T09:40:52.538Z,5.40
2019-01-17T09:43:55.639Z,5.40
2019-01-17T09:46:58.831Z,5.40
2019-01-17T09:50:02.024Z,5.50
2019-01-17T09:53:05.219Z,5.50
2019-01-17T09:56:14.695Z,5.50
2019-01-17T09:59:13.247Z,5.50
2019-01-17T10:02:16.341Z,5.50
2019-01-17T10:05:19.531Z,5.40
2019-01-17T10:08:22.733Z,5.40
2019-01-17T10:11:25.830Z,5.30
2019-01-17T10:14:29.026Z,5.40
2019-01-17T10:17:52.794Z,5.50
2019-01-17T10:21:31.830Z,5.60
2019-01-17T10:25:05.130Z,5.70
2019-01-17T10:28:45.037Z,5.70
2019-01-17T10:32:08.566Z,5.70
2019-01-17T10:35:59.411Z,5.70
2019-01-17T10:39:48.134Z,5.70
2019-01-17T10:43:21.515Z,5.70
2019-01-17T10:47:24.534Z,5.70
2019-01-17T10:50:52.859Z,5.70
2019-01-17T10:54:25.511Z,5.60
2019-01-17T10:57:57.022Z,5.60
2019-01-17T11:01:36.103Z,5.60
2019-01-17T11:05:17.438Z,5.50
2019-01-17T11:09:02.966Z,5.50
2019-01-17T11:12:57.720Z,5.50
2019-01-17T11:16:47.262Z,5.50
2019-01-17T11:20:41.502Z,5.50
2019-01-17T11:24:19.054Z,5.50
2019-01-17T11:27:53.225Z,5.50
2019-01-17T11:31:12.961Z,5.60
2019-01-17T11:35:03.822Z,5.60
2019-01-17T11:38:52.023Z,5.60
2019-01-17T11:42:42.250Z,5.60
2019-01-17T11:46:38.970Z,5.60
2019-01-17T11:50:26.266Z,5.60
2019-01-17T11:54:06.566Z,5.70
2019-01-17T11:57:37.246Z,5.70
2019-01-17T12:01:06.306Z,5.80
2019-01-17T12:04:33.916Z,5.80
2019-01-17T12:07:38.154Z,5.90
2019-01-17T12:10:41.438Z,5.80
2019-01-17T12:13:44.483Z,5.80
2019-01-17T12:16:47.926Z,5.80
2019-01-17T12:19:51.074Z,5.90
2019-01-17T12:22:54.214Z,6.00
2019-01-17T12:25:57.470Z,6.10
2019-01-17T12:29:00.626Z,6.10
2019-01-17T12:32:03.861Z,6.10
2019-01-17T12:35:09.711Z,6.20
2019-01-17T12:38:12.910Z,6.30
2019-01-17T12:41:16.458Z,6.40
2019-01-17T12:44:20.582Z,6.40
2019-01-17T12:47:23.891Z,6.40
2019-01-17T12:50:27.026Z,6.30
2019-01-17T12:53:30.258Z,6.30
2019-01-17T12:56:33.409Z,6.20
2019-01-17T12:59:36.750Z,6.10
2019-01-17T13:02:40.008Z,6.10
2019-01-17T13:05:43.144Z,6.10
2019-01-17T13:08:46.297Z,6.20
2019-01-17T13:11:49.601Z,6.10
2019-01-17T13:14:52.786Z,6.10
2019-01-17T13:17:56.018Z,6.00
2019-01-17T13:21:00.355Z,6.10
2019-01-17T13:24:03.435Z,6.00
2019-01-17T13:27:06.602Z,6.10
2019-01-17T13:30:15.094Z,6.10
2019-01-17T13:33:18.305Z,6.10
2019-01-17T13:36:21.435Z,6.20
2019-01-17T13:39:24.490Z,6.20
2019-01-17T13:42:27.758Z,6.10
2019-01-17T13:45:30.986Z,6.10
2019-01-17T13:48:34.218Z,6.10
2019-01-17T13:51:37.278Z,6.20
2019-01-17T13:54:40.402Z,6.30
2019-01-17T13:57:43.667Z,6.30
2019-01-17T14:00:46.930Z,6.30
2019-01-17T14:03:50.052Z,6.40
2019-01-17T14:06:53.286Z,6.40
2019-01-17T14:09:56.314Z,6.60
2019-01-17T14:12:59.586Z,6.60
2019-01-17T14:16:02.835Z,6.50
2019-01-17T14:19:06.350Z,6.40
2019-01-17T14:22:09.529Z,6.20
2019-01-17T14:25:12.778Z,6.00
2019-01-17T14:28:15.826Z,5.90
2019-01-17T14:31:18.914Z,5.80
2019-01-17T14:34:22.007Z,5.70
2019-01-17T14:37:25.244Z,5.70
2019-01-17T14:40:28.294Z,5.60
2019-01-17T14:43:31.487Z,5.60
2019-01-17T14:46:34.581Z,5.60
2019-01-17T14:49:37.774Z,5.60
2019-01-17T14:52:41.174Z,5.50
2019-01-17T14:55:44.370Z,5.40
2019-01-17T14:58:47.562Z,5.50
2019-01-17T15:01:50.763Z,5.30
2019-01-17T15:04:53.854Z,5.20
2019-01-17T15:07:56.950Z,5.10
2019-01-17T15:11:00.123Z,5.10
2019-01-17T15:14:03.442Z,5.00
2019-01-17T15:17:08.215Z,5.00
2019-01-17T15:20:14.094Z,4.90
2019-01-17T15:23:17.321Z,4.90
2019-01-17T15:26:20.523Z,4.90
2019-01-17T15:29:23.622Z,4.80
2019-01-17T15:32:26.854Z,4.70
2019-01-17T15:35:29.991Z,4.70
2019-01-17T15:38:33.339Z,4.50
2019-01-17T15:41:36.483Z,4.40
2019-01-17T15:44:40.054Z,4.30
2019-01-17T15:47:44.306Z,4.30
2019-01-17T15:50:47.638Z,4.20
2019-01-17T15:53:50.799Z,4.20
2019-01-17T15:56:54.046Z,4.10
2019-01-17T15:59:57.086Z,4.00
2019-01-17T16:03:00.438Z,3.90
2019-01-17T16:06:03.682Z,3.80
2019-01-17T16:09:07.750Z,3.60
2019-01-17T16:12:10.894Z,3.50
2019-01-17T16:15:16.726Z,3.50
2019-01-17T16:18:20.870Z,3.50
2019-01-17T16:21:24.015Z,3.50
2019-01-17T16:24:27.269Z,3.50
2019-01-17T16:27:30.394Z,3.50
2019-01-17T16:30:33.749Z,3.50
2019-01-17T16:33:38.465Z,3.50
2019-01-17T16:36:41.677Z,3.50
2019-01-17T16:39:45.145Z,3.60
2019-01-17T16:42:48.318Z,3.70
2019-01-17T16:45:51.519Z,3.80
2019-01-17T16:48:54.663Z,3.90
2019-01-17T16:51:58.457Z,4.00
2019-01-17T16:55:04.351Z,4.00
2019-01-17T16:58:07.862Z,4.00
2019-01-17T17:01:11.022Z,4.10
2019-01-17T17:04:14.286Z,4.10
2019-01-17T17:07:17.522Z,4.10
2019-01-17T17:10:20.883Z,4.20
2019-01-17T17:13:24.936Z,4.20
2019-01-17T17:16:28.074Z,4.50
2019-01-17T17:19:31.146Z,4.60
2019-01-17T17:22:34.682Z,4.70
2019-01-17T17:25:38.018Z,4.70
2019-01-17T17:28:41.154Z,4.70
2019-01-17T17:31:44.307Z,4.70
2019-01-17T17:34:49.318Z,4.80
2019-01-17T17:37:52.438Z,4.80
2019-01-17T17:40:55.571Z,4.80
2019-01-17T17:43:58.627Z,4.90
2019-01-17T17:47:01.970Z,4.90
2019-01-17T17:50:06.346Z,4.90
2019-01-17T17:53:09.479Z,4.90
2019-01-17T17:56:13.737Z,4.90
2019-01-17T17:59:17.198Z,4.90
2019-01-17T18:02:26.494Z,4.80
2019-01-17T18:05:29.674Z,4.90
2019-01-17T18:08:32.790Z,4.90
2019-01-17T18:11:35.881Z,4.80
2019-01-17T18:14:40.002Z,4.90
2019-01-17T18:17:43.295Z,4.80
2019-01-17T18:20:46.482Z,4.80
2019-01-17T18:23:49.693Z,4.70
2019-01-17T18:26:52.879Z,4.60
2019-01-17T18:29:55.973Z,4.50
2019-01-17T18:32:59.170Z,4.40
2019-01-17T18:36:02.266Z,4.40
2019-01-17T18:39:10.562Z,4.30
2019-01-17T18:42:13.874Z,4.30
2019-01-17T18:45:18.582Z,4.30
2019-01-17T18:48:22.718Z,4.20
2019-01-17T18:51:25.910Z,4.20
2019-01-17T18:54:29.014Z,4.10
2019-01-17T18:57:32.101Z,4.00
2019-01-17T19:00:35.302Z,4.00
2019-01-17T19:03:38.386Z,3.90
2019-01-17T19:06:41.586Z,3.80
2019-01-17T19:09:44.882Z,3.70
2019-01-17T19:12:48.231Z,3.60
2019-01-17T19:15:51.370Z,3.50
2019-01-17T19:18:54.606Z,3.50
2019-01-17T19:21:57.662Z,3.50
2019-01-17T19:25:00.899Z,3.40
2019-01-17T19:28:04.258Z,3.40
2019-01-17T19:31:07.386Z,3.40
2019-01-17T19:34:10.546Z,3.30
2019-01-17T19:37:13.674Z,3.30
2019-01-17T19:40:18.332Z,3.30
2019-01-17T19:43:21.603Z,3.30
2019-01-17T19:46:24.858Z,3.30
2019-01-17T19:49:27.995Z,3.40
2019-01-17T19:52:31.254Z,3.30
2019-01-17T19:55:34.483Z,3.30
2019-01-17T19:58:37.641Z,3.40
2019-01-17T20:01:40.786Z,3.40
2019-01-17T20:04:44.270Z,3.40
2019-01-17T20:07:47.649Z,3.40
2019-01-17T20:10:50.826Z,3.40
2019-01-17T20:13:54.274Z,3.40
2019-01-17T20:16:57.497Z,3.40
2019-01-17T20:20:01.290Z,3.40
2019-01-17T20:23:05.462Z,3.50
2019-01-17T20:26:08.781Z,3.50
2019-01-17T20:29:11.847Z,3.50
2019-01-17T20:32:18.729Z,3.50
2019-01-17T20:35:20.078Z,3.50
2019-01-17T20:38:23.321Z,3.60
2019-01-17T20:41:26.470Z,3.50
2019-01-17T20:44:30.022Z,3.50
2019-01-17T20:47:33.274Z,3.50
2019-01-17T20:50:36.514Z,3.50
2019-01-17T20:53:39.762Z,3.50
2019-01-17T20:56:43.194Z,3.50
2019-01-17T20:59:46.259Z,3.50
2019-01-17T21:02:49.758Z,3.40
2019-01-17T21:05:52.854Z,3.50
2019-01-17T21:08:56.046Z,3.40
2019-01-17T21:11:59.242Z,3.30
2019-01-17T21:15:02.835Z,3.20
2019-01-17T21:18:06.242Z,3.20
2019-01-17T21:21:09.346Z,3.20
2019-01-17T21:24:12.534Z,3.20
2019-01-17T21:27:15.833Z,3.20
2019-01-17T21:30:20.934Z,3.20
2019-01-17T21:33:24.168Z,3.20
2019-01-17T21:36:27.358Z,3.30
2019-01-17T21:39:31.684Z,3.30
2019-01-17T21:42:34.774Z,3.30
2019-01-17T21:45:38.073Z,3.30
2019-01-17T21:48:41.266Z,3.20
2019-01-17T21:51:44.471Z,3.20
2019-01-17T21:54:47.429Z,3.20
2019-01-17T21:57:50.650Z,3.20
2019-01-17T22:00:53.852Z,3.20
2019-01-17T22:03:58.842Z,3.20
2019-01-17T22:07:20.848Z,3.20
2019-01-17T22:10:24.124Z,3.10
2019-01-17T22:13:27.314Z,3.20
2019-01-17T22:16:30.418Z,3.10
2019-01-17T22:19:34.192Z,3.10
2019-01-17T22:22:37.411Z,3.10
2019-01-17T22:25:40.583Z,3.10
2019-01-17T22:28:43.698Z,3.10
2019-01-17T22:31:47.830Z,3.10
2019-01-17T22:34:52.687Z,3.10
2019-01-17T22:37:55.817Z,3.10
2019-01-17T22:40:59.070Z,3.10
2019-01-17T22:44:02.934Z,3.00
2019-01-17T22:47:06.082Z,3.00
2019-01-17T22:50:11.178Z,3.00
2019-01-17T22:53:14.418Z,3.10
2019-01-17T22:56:18.668Z,3.10
2019-01-17T22:59:21.830Z,3.10
2019-01-17T23:02:24.983Z,3.10
2019-01-17T23:05:28.217Z,3.00
2019-01-17T23:08:32.277Z,2.90
2019-01-17T23:11:35.647Z,2.80
2019-01-17T23:14:38.890Z,2.80
2019-01-17T23:17:42.122Z,2.70
2019-01-17T23:20:45.386Z,2.70
2019-01-17T23:23:48.598Z,2.60
2019-01-17T23:26:51.673Z,2.60
2019-01-17T23:29:54.914Z,2.60
2019-01-17T23:32:57.962Z,2.60
2019-01-17T23:36:01.090Z,2.60
2019-01-17T23:39:07.593Z,2.50
2019-01-17T23:42:10.772Z,2.50
2019-01-17T23:45:13.913Z,2.50
2019-01-17T23:48:17.042Z,2.40
2019-01-17T23:51:20.097Z,2.40
2019-01-17T23:54:23.334Z,2.40
2019-01-17T23:57:26.494Z,2.30
